sensor_id;sensor_type;location;lat;lon;timestamp;P1;durP1;ratioP1;P2;durP2;ratioP2
32800;SDS011;40572;45.552;12.072;2022-08-19T00:00:05;6.62;;;1.90;;
32800;SDS011;40572;45.552;12.072;2022-08-19T00:02:33;4.63;;;2.00;;
32800;SDS011;40572;45.552;12.072;2022-08-19T00:04:59;5.87;;;2.43;;
32800;SDS011;40572;45.552;12.072;2022-08-19T00:07:26;6.77;;;2.30;;
32800;SDS011;40572;45.552;12.072;2022-08-19T00:09:52;8.13;;;1.90;;
32800;SDS011;40572;45.552;12.072;2022-08-19T00:12:18;5.75;;;2.30;;
32800;SDS011;40572;45.552;12.072;2022-08-19T00:14:44;7.35;;;2.30;;
32800;SDS011;40572;45.552;12.072;2022-08-19T00:17:11;5.80;;;2.08;;
32800;SDS011;40572;45.552;12.072;2022-08-19T00:19:38;7.70;;;2.33;;
32800;SDS011;40572;45.552;12.072;2022-08-19T00:22:04;4.17;;;1.77;;
32800;SDS011;40572;45.552;12.072;2022-08-19T00:24:31;6.93;;;2.20;;
32800;SDS011;40572;45.552;12.072;2022-08-19T00:26:57;6.75;;;2.47;;
32800;SDS011;40572;45.552;12.072;2022-08-19T00:29:24;7.78;;;2.92;;
32800;SDS011;40572;45.552;12.072;2022-08-19T00:31:50;5.00;;;2.10;;
32800;SDS011;40572;45.552;12.072;2022-08-19T00:34:19;5.17;;;2.10;;
32800;SDS011;40572;45.552;12.072;2022-08-19T00:36:45;7.90;;;2.22;;
32800;SDS011;40572;45.552;12.072;2022-08-19T00:39:11;5.28;;;2.33;;
32800;SDS011;40572;45.552;12.072;2022-08-19T00:41:38;5.55;;;2.30;;
32800;SDS011;40572;45.552;12.072;2022-08-19T00:44:10;9.33;;;3.13;;
32800;SDS011;40572;45.552;12.072;2022-08-19T00:46:33;6.57;;;2.13;;
32800;SDS011;40572;45.552;12.072;2022-08-19T00:49:03;7.10;;;2.40;;
32800;SDS011;40572;45.552;12.072;2022-08-19T00:51:30;9.10;;;2.60;;
32800;SDS011;40572;45.552;12.072;2022-08-19T00:53:57;5.40;;;2.20;;
32800;SDS011;40572;45.552;12.072;2022-08-19T00:56:24;7.20;;;2.60;;
32800;SDS011;40572;45.552;12.072;2022-08-19T00:58:53;5.07;;;2.30;;
32800;SDS011;40572;45.552;12.072;2022-08-19T01:01:20;7.00;;;2.80;;
32800;SDS011;40572;45.552;12.072;2022-08-19T01:03:47;7.55;;;2.92;;
32800;SDS011;40572;45.552;12.072;2022-08-19T01:06:14;5.30;;;2.77;;
32800;SDS011;40572;45.552;12.072;2022-08-19T01:08:41;7.43;;;3.10;;
32800;SDS011;40572;45.552;12.072;2022-08-19T01:11:08;5.50;;;2.33;;
32800;SDS011;40572;45.552;12.072;2022-08-19T01:13:36;8.17;;;2.57;;
32800;SDS011;40572;45.552;12.072;2022-08-19T01:16:04;7.58;;;2.77;;
32800;SDS011;40572;45.552;12.072;2022-08-19T01:18:32;7.90;;;2.27;;
32800;SDS011;40572;45.552;12.072;2022-08-19T01:23:53;7.97;;;2.40;;
32800;SDS011;40572;45.552;12.072;2022-08-19T01:26:25;6.40;;;2.50;;
32800;SDS011;40572;45.552;12.072;2022-08-19T01:28:59;7.12;;;2.40;;
32800;SDS011;40572;45.552;12.072;2022-08-19T01:31:34;7.93;;;2.43;;
32800;SDS011;40572;45.552;12.072;2022-08-19T01:34:21;5.43;;;2.50;;
32800;SDS011;40572;45.552;12.072;2022-08-19T01:36:40;6.30;;;2.60;;
32800;SDS011;40572;45.552;12.072;2022-08-19T01:39:08;7.03;;;2.47;;
32800;SDS011;40572;45.552;12.072;2022-08-19T01:41:35;5.75;;;2.95;;
32800;SDS011;40572;45.552;12.072;2022-08-19T01:44:02;5.70;;;2.30;;
32800;SDS011;40572;45.552;12.072;2022-08-19T01:46:30;7.13;;;2.67;;
32800;SDS011;40572;45.552;12.072;2022-08-19T01:48:59;6.67;;;2.90;;
32800;SDS011;40572;45.552;12.072;2022-08-19T01:51:26;7.90;;;2.93;;
32800;SDS011;40572;45.552;12.072;2022-08-19T01:53:52;7.53;;;2.67;;
32800;SDS011;40572;45.552;12.072;2022-08-19T01:56:27;7.13;;;2.57;;
32800;SDS011;40572;45.552;12.072;2022-08-19T01:59:00;11.87;;;2.67;;
32800;SDS011;40572;45.552;12.072;2022-08-19T02:44:00;7.77;;;2.83;;
32800;SDS011;40572;45.552;12.072;2022-08-19T02:46:47;8.63;;;2.60;;
32800;SDS011;40572;45.552;12.072;2022-08-19T02:49:20;6.03;;;2.57;;
32800;SDS011;40572;45.552;12.072;2022-08-19T02:51:46;7.00;;;2.70;;
32800;SDS011;40572;45.552;12.072;2022-08-19T02:54:13;4.72;;;2.67;;
32800;SDS011;40572;45.552;12.072;2022-08-19T02:56:42;7.00;;;2.40;;
32800;SDS011;40572;45.552;12.072;2022-08-19T02:59:08;7.67;;;2.43;;
32800;SDS011;40572;45.552;12.072;2022-08-19T03:01:35;4.80;;;2.20;;
32800;SDS011;40572;45.552;12.072;2022-08-19T03:04:02;5.90;;;2.35;;
32800;SDS011;40572;45.552;12.072;2022-08-19T03:06:29;5.77;;;2.10;;
32800;SDS011;40572;45.552;12.072;2022-08-19T03:08:55;7.65;;;2.30;;
32800;SDS011;40572;45.552;12.072;2022-08-19T03:11:26;9.50;;;2.43;;
32800;SDS011;40572;45.552;12.072;2022-08-19T03:13:53;5.37;;;2.53;;
32800;SDS011;40572;45.552;12.072;2022-08-19T03:16:21;3.62;;;1.80;;
32800;SDS011;40572;45.552;12.072;2022-08-19T03:18:48;5.23;;;1.90;;
32800;SDS011;40572;45.552;12.072;2022-08-19T03:21:16;6.27;;;2.07;;
32800;SDS011;40572;45.552;12.072;2022-08-19T03:23:42;4.33;;;1.80;;
32800;SDS011;40572;45.552;12.072;2022-08-19T03:26:08;4.55;;;1.82;;
32800;SDS011;40572;45.552;12.072;2022-08-19T03:28:34;6.42;;;1.75;;
32800;SDS011;40572;45.552;12.072;2022-08-19T03:31:02;6.23;;;1.80;;
32800;SDS011;40572;45.552;12.072;2022-08-19T03:33:30;5.57;;;1.87;;
32800;SDS011;40572;45.552;12.072;2022-08-19T03:36:04;3.87;;;1.57;;
32800;SDS011;40572;45.552;12.072;2022-08-19T03:38:31;4.57;;;1.97;;
32800;SDS011;40572;45.552;12.072;2022-08-19T03:40:57;3.77;;;2.00;;
32800;SDS011;40572;45.552;12.072;2022-08-19T03:43:23;3.42;;;1.50;;
32800;SDS011;40572;45.552;12.072;2022-08-19T03:45:59;4.28;;;1.90;;
32800;SDS011;40572;45.552;12.072;2022-08-19T03:48:17;5.20;;;1.77;;
32800;SDS011;40572;45.552;12.072;2022-08-19T03:50:43;3.90;;;1.47;;
32800;SDS011;40572;45.552;12.072;2022-08-19T03:53:09;4.22;;;1.42;;
32800;SDS011;40572;45.552;12.072;2022-08-19T03:55:39;4.87;;;1.50;;
32800;SDS011;40572;45.552;12.072;2022-08-19T03:58:06;3.37;;;1.70;;
32800;SDS011;40572;45.552;12.072;2022-08-19T04:00:32;5.05;;;1.40;;
32800;SDS011;40572;45.552;12.072;2022-08-19T04:03:00;4.47;;;1.80;;
32800;SDS011;40572;45.552;12.072;2022-08-19T04:05:27;2.90;;;1.50;;
32800;SDS011;40572;45.552;12.072;2022-08-19T04:07:54;2.33;;;1.50;;
32800;SDS011;40572;45.552;12.072;2022-08-19T04:10:22;3.13;;;1.30;;
32800;SDS011;40572;45.552;12.072;2022-08-19T04:12:50;3.30;;;1.50;;
32800;SDS011;40572;45.552;12.072;2022-08-19T04:15:16;2.67;;;1.57;;
32800;SDS011;40572;45.552;12.072;2022-08-19T04:17:42;3.58;;;1.42;;
32800;SDS011;40572;45.552;12.072;2022-08-19T04:20:08;5.30;;;2.00;;
32800;SDS011;40572;45.552;12.072;2022-08-19T04:22:36;4.50;;;1.83;;
32800;SDS011;40572;45.552;12.072;2022-08-19T04:25:01;3.25;;;1.72;;
32800;SDS011;40572;45.552;12.072;2022-08-19T04:27:27;4.45;;;1.70;;
32800;SDS011;40572;45.552;12.072;2022-08-19T04:29:54;4.42;;;1.82;;
32800;SDS011;40572;45.552;12.072;2022-08-19T04:32:21;2.83;;;1.30;;
32800;SDS011;40572;45.552;12.072;2022-08-19T04:34:48;3.00;;;1.30;;
32800;SDS011;40572;45.552;12.072;2022-08-19T04:37:15;4.43;;;1.60;;
32800;SDS011;40572;45.552;12.072;2022-08-19T04:39:41;3.92;;;1.87;;
32800;SDS011;40572;45.552;12.072;2022-08-19T04:42:25;2.10;;;1.35;;
32800;SDS011;40572;45.552;12.072;2022-08-19T04:45:11;3.00;;;1.30;;
32800;SDS011;40572;45.552;12.072;2022-08-19T04:47:39;4.73;;;1.97;;
32800;SDS011;40572;45.552;12.072;2022-08-19T04:50:06;2.37;;;1.40;;
32800;SDS011;40572;45.552;12.072;2022-08-19T04:52:32;2.83;;;1.93;;
32800;SDS011;40572;45.552;12.072;2022-08-19T04:54:59;4.70;;;1.95;;
32800;SDS011;40572;45.552;12.072;2022-08-19T04:57:25;3.10;;;1.50;;
32800;SDS011;40572;45.552;12.072;2022-08-19T04:59:55;3.33;;;1.60;;
32800;SDS011;40572;45.552;12.072;2022-08-19T05:02:21;3.47;;;1.70;;
32800;SDS011;40572;45.552;12.072;2022-08-19T05:04:55;2.60;;;1.43;;
32800;SDS011;40572;45.552;12.072;2022-08-19T05:07:18;5.75;;;1.87;;
32800;SDS011;40572;45.552;12.072;2022-08-19T05:09:44;3.58;;;1.70;;
32800;SDS011;40572;45.552;12.072;2022-08-19T05:12:10;3.77;;;1.90;;
32800;SDS011;40572;45.552;12.072;2022-08-19T05:14:36;4.03;;;1.57;;
32800;SDS011;40572;45.552;12.072;2022-08-19T05:17:02;3.37;;;1.53;;
32800;SDS011;40572;45.552;12.072;2022-08-19T05:19:28;4.17;;;1.53;;
32800;SDS011;40572;45.552;12.072;2022-08-19T05:22:13;3.77;;;1.60;;
32800;SDS011;40572;45.552;12.072;2022-08-19T05:24:58;2.97;;;2.07;;
32800;SDS011;40572;45.552;12.072;2022-08-19T05:27:24;4.83;;;2.80;;
32800;SDS011;40572;45.552;12.072;2022-08-19T05:29:50;4.93;;;2.53;;
32800;SDS011;40572;45.552;12.072;2022-08-19T05:32:16;4.23;;;2.57;;
32800;SDS011;40572;45.552;12.072;2022-08-19T05:34:42;5.37;;;2.07;;
32800;SDS011;40572;45.552;12.072;2022-08-19T05:37:07;3.17;;;1.57;;
32800;SDS011;40572;45.552;12.072;2022-08-19T05:39:35;3.03;;;1.70;;
32800;SDS011;40572;45.552;12.072;2022-08-19T05:42:03;6.35;;;1.50;;
32800;SDS011;40572;45.552;12.072;2022-08-19T05:44:31;3.12;;;1.40;;
32800;SDS011;40572;45.552;12.072;2022-08-19T05:46:58;3.33;;;1.50;;
32800;SDS011;40572;45.552;12.072;2022-08-19T05:49:25;5.07;;;1.73;;
32800;SDS011;40572;45.552;12.072;2022-08-19T05:51:52;3.93;;;1.40;;
32800;SDS011;40572;45.552;12.072;2022-08-19T05:54:20;3.30;;;1.23;;
32800;SDS011;40572;45.552;12.072;2022-08-19T05:56:49;3.70;;;1.72;;
32800;SDS011;40572;45.552;12.072;2022-08-19T05:59:15;4.77;;;2.10;;
32800;SDS011;40572;45.552;12.072;2022-08-19T06:01:44;3.20;;;1.67;;
32800;SDS011;40572;45.552;12.072;2022-08-19T06:04:10;5.67;;;1.80;;
32800;SDS011;40572;45.552;12.072;2022-08-19T06:06:36;4.35;;;2.12;;
32800;SDS011;40572;45.552;12.072;2022-08-19T06:09:03;6.00;;;2.60;;
32800;SDS011;40572;45.552;12.072;2022-08-19T06:11:34;2.58;;;2.12;;
32800;SDS011;40572;45.552;12.072;2022-08-19T06:14:00;4.00;;;1.23;;
32800;SDS011;40572;45.552;12.072;2022-08-19T06:16:27;4.23;;;2.40;;
32800;SDS011;40572;45.552;12.072;2022-08-19T06:18:53;5.95;;;2.33;;
32800;SDS011;40572;45.552;12.072;2022-08-19T06:21:20;3.42;;;1.42;;
32800;SDS011;40572;45.552;12.072;2022-08-19T06:23:47;1.90;;;1.10;;
32800;SDS011;40572;45.552;12.072;2022-08-19T06:26:13;3.10;;;1.30;;
32800;SDS011;40572;45.552;12.072;2022-08-19T06:28:39;4.27;;;1.47;;
32800;SDS011;40572;45.552;12.072;2022-08-19T06:31:10;4.33;;;1.33;;
32800;SDS011;40572;45.552;12.072;2022-08-19T06:33:36;3.37;;;1.35;;
32800;SDS011;40572;45.552;12.072;2022-08-19T06:36:03;3.27;;;1.40;;
32800;SDS011;40572;45.552;12.072;2022-08-19T06:38:29;2.23;;;1.30;;
32800;SDS011;40572;45.552;12.072;2022-08-19T06:41:02;2.87;;;1.10;;
32800;SDS011;40572;45.552;12.072;2022-08-19T06:43:28;2.60;;;1.30;;
32800;SDS011;40572;45.552;12.072;2022-08-19T06:45:54;2.55;;;1.10;;
32800;SDS011;40572;45.552;12.072;2022-08-19T06:48:20;2.80;;;1.30;;
32800;SDS011;40572;45.552;12.072;2022-08-19T06:50:46;6.27;;;2.20;;
32800;SDS011;40572;45.552;12.072;2022-08-19T06:53:14;2.80;;;1.10;;
32800;SDS011;40572;45.552;12.072;2022-08-19T06:55:40;4.45;;;2.60;;
32800;SDS011;40572;45.552;12.072;2022-08-19T06:58:06;3.17;;;2.52;;
32800;SDS011;40572;45.552;12.072;2022-08-19T07:00:32;2.80;;;2.60;;
32800;SDS011;40572;45.552;12.072;2022-08-19T07:02:59;4.47;;;2.87;;
32800;SDS011;40572;45.552;12.072;2022-08-19T07:05:26;3.00;;;2.77;;
32800;SDS011;40572;45.552;12.072;2022-08-19T07:07:52;3.60;;;3.12;;
32800;SDS011;40572;45.552;12.072;2022-08-19T07:10:18;3.53;;;3.20;;
32800;SDS011;40572;45.552;12.072;2022-08-19T07:12:44;3.20;;;2.90;;
32800;SDS011;40572;45.552;12.072;2022-08-19T07:15:11;3.40;;;1.70;;
32800;SDS011;40572;45.552;12.072;2022-08-19T07:17:37;3.65;;;1.92;;
32800;SDS011;40572;45.552;12.072;2022-08-19T07:20:05;3.60;;;1.50;;
32800;SDS011;40572;45.552;12.072;2022-08-19T07:22:36;3.08;;;1.40;;
32800;SDS011;40572;45.552;12.072;2022-08-19T07:25:00;2.30;;;1.30;;
32800;SDS011;40572;45.552;12.072;2022-08-19T07:27:28;3.20;;;1.30;;
32800;SDS011;40572;45.552;12.072;2022-08-19T07:29:53;3.08;;;1.35;;
32800;SDS011;40572;45.552;12.072;2022-08-19T07:32:19;3.30;;;1.30;;
32800;SDS011;40572;45.552;12.072;2022-08-19T07:34:45;3.77;;;1.20;;
32800;SDS011;40572;45.552;12.072;2022-08-19T07:37:11;2.83;;;1.40;;
32800;SDS011;40572;45.552;12.072;2022-08-19T07:39:38;2.87;;;1.37;;
32800;SDS011;40572;45.552;12.072;2022-08-19T07:42:06;2.27;;;1.20;;
32800;SDS011;40572;45.552;12.072;2022-08-19T07:44:32;2.87;;;1.23;;
32800;SDS011;40572;45.552;12.072;2022-08-19T07:46:59;5.03;;;1.10;;
32800;SDS011;40572;45.552;12.072;2022-08-19T07:49:26;2.13;;;1.17;;
32800;SDS011;40572;45.552;12.072;2022-08-19T07:51:53;1.98;;;1.25;;
32800;SDS011;40572;45.552;12.072;2022-08-19T07:54:19;2.77;;;1.37;;
32800;SDS011;40572;45.552;12.072;2022-08-19T07:56:46;3.70;;;1.50;;
32800;SDS011;40572;45.552;12.072;2022-08-19T07:59:12;3.35;;;1.47;;
32800;SDS011;40572;45.552;12.072;2022-08-19T08:01:38;2.40;;;1.15;;
32800;SDS011;40572;45.552;12.072;2022-08-19T08:04:05;3.83;;;1.50;;
32800;SDS011;40572;45.552;12.072;2022-08-19T08:06:50;1.80;;;0.97;;
32800;SDS011;40572;45.552;12.072;2022-08-19T08:09:36;3.00;;;1.30;;
32800;SDS011;40572;45.552;12.072;2022-08-19T08:12:05;3.70;;;1.30;;
32800;SDS011;40572;45.552;12.072;2022-08-19T08:14:37;1.90;;;1.27;;
32800;SDS011;40572;45.552;12.072;2022-08-19T08:17:03;2.87;;;1.30;;
32800;SDS011;40572;45.552;12.072;2022-08-19T08:19:29;6.80;;;1.40;;
32800;SDS011;40572;45.552;12.072;2022-08-19T08:21:56;2.57;;;1.13;;
32800;SDS011;40572;45.552;12.072;2022-08-19T08:24:23;4.07;;;1.23;;
32800;SDS011;40572;45.552;12.072;2022-08-19T08:26:50;2.67;;;1.10;;
32800;SDS011;40572;45.552;12.072;2022-08-19T08:29:16;3.47;;;1.20;;
32800;SDS011;40572;45.552;12.072;2022-08-19T08:31:43;1.87;;;1.10;;
32800;SDS011;40572;45.552;12.072;2022-08-19T08:34:10;2.60;;;1.00;;
32800;SDS011;40572;45.552;12.072;2022-08-19T08:36:40;2.73;;;1.30;;
32800;SDS011;40572;45.552;12.072;2022-08-19T08:39:08;3.63;;;0.97;;
32800;SDS011;40572;45.552;12.072;2022-08-19T08:41:37;2.73;;;1.00;;
32800;SDS011;40572;45.552;12.072;2022-08-19T08:44:03;3.60;;;1.10;;
32800;SDS011;40572;45.552;12.072;2022-08-19T08:51:34;2.10;;;1.03;;
32800;SDS011;40572;45.552;12.072;2022-08-19T08:54:02;2.57;;;1.20;;
32800;SDS011;40572;45.552;12.072;2022-08-19T08:56:29;2.43;;;1.37;;
32800;SDS011;40572;45.552;12.072;2022-08-19T08:59:07;2.47;;;1.13;;
32800;SDS011;40572;45.552;12.072;2022-08-19T09:01:34;1.87;;;0.98;;
32800;SDS011;40572;45.552;12.072;2022-08-19T09:04:00;4.17;;;1.15;;
32800;SDS011;40572;45.552;12.072;2022-08-19T09:06:38;3.20;;;1.13;;
32800;SDS011;40572;45.552;12.072;2022-08-19T09:09:05;2.10;;;0.90;;
32800;SDS011;40572;45.552;12.072;2022-08-19T09:11:47;2.40;;;1.13;;
32800;SDS011;40572;45.552;12.072;2022-08-19T09:16:45;3.97;;;1.30;;
32800;SDS011;40572;45.552;12.072;2022-08-19T09:19:11;4.17;;;1.20;;
32800;SDS011;40572;45.552;12.072;2022-08-19T09:21:37;4.10;;;1.25;;
32800;SDS011;40572;45.552;12.072;2022-08-19T09:24:04;3.30;;;1.40;;
32800;SDS011;40572;45.552;12.072;2022-08-19T09:26:30;4.80;;;1.22;;
32800;SDS011;40572;45.552;12.072;2022-08-19T09:28:58;5.57;;;1.23;;
32800;SDS011;40572;45.552;12.072;2022-08-19T09:31:26;3.23;;;1.47;;
32800;SDS011;40572;45.552;12.072;2022-08-19T09:33:52;3.30;;;1.40;;
32800;SDS011;40572;45.552;12.072;2022-08-19T09:36:20;2.63;;;1.20;;
32800;SDS011;40572;45.552;12.072;2022-08-19T09:38:48;2.77;;;1.20;;
32800;SDS011;40572;45.552;12.072;2022-08-19T09:41:15;4.08;;;1.67;;
32800;SDS011;40572;45.552;12.072;2022-08-19T09:43:43;4.77;;;1.40;;
32800;SDS011;40572;45.552;12.072;2022-08-19T09:46:22;4.63;;;1.10;;
32800;SDS011;40572;45.552;12.072;2022-08-19T09:48:49;3.50;;;1.50;;
32800;SDS011;40572;45.552;12.072;2022-08-19T09:51:17;2.67;;;1.30;;
32800;SDS011;40572;45.552;12.072;2022-08-19T09:53:44;1.93;;;1.60;;
32800;SDS011;40572;45.552;12.072;2022-08-19T09:56:11;3.27;;;1.50;;
32800;SDS011;40572;45.552;12.072;2022-08-19T09:58:38;2.13;;;1.20;;
32800;SDS011;40572;45.552;12.072;2022-08-19T10:01:05;2.67;;;1.30;;
32800;SDS011;40572;45.552;12.072;2022-08-19T10:03:33;2.00;;;1.20;;
32800;SDS011;40572;45.552;12.072;2022-08-19T10:06:00;2.53;;;1.10;;
32800;SDS011;40572;45.552;12.072;2022-08-19T10:08:28;2.93;;;1.40;;
32800;SDS011;40572;45.552;12.072;2022-08-19T10:10:55;2.53;;;1.20;;
32800;SDS011;40572;45.552;12.072;2022-08-19T10:13:22;2.00;;;1.20;;
32800;SDS011;40572;45.552;12.072;2022-08-19T10:15:51;2.47;;;1.20;;
32800;SDS011;40572;45.552;12.072;2022-08-19T10:18:18;1.67;;;1.20;;
32800;SDS011;40572;45.552;12.072;2022-08-19T10:20:46;3.23;;;1.77;;
32800;SDS011;40572;45.552;12.072;2022-08-19T10:23:12;3.43;;;1.00;;
32800;SDS011;40572;45.552;12.072;2022-08-19T10:25:39;2.20;;;1.40;;
32800;SDS011;40572;45.552;12.072;2022-08-19T10:28:05;2.33;;;1.15;;
32800;SDS011;40572;45.552;12.072;2022-08-19T10:30:37;1.70;;;1.00;;
32800;SDS011;40572;45.552;12.072;2022-08-19T10:33:03;2.90;;;1.47;;
32800;SDS011;40572;45.552;12.072;2022-08-19T10:35:29;3.33;;;1.37;;
32800;SDS011;40572;45.552;12.072;2022-08-19T10:37:56;4.77;;;1.60;;
32800;SDS011;40572;45.552;12.072;2022-08-19T10:40:27;3.93;;;1.27;;
32800;SDS011;40572;45.552;12.072;2022-08-19T10:42:53;2.40;;;1.30;;
32800;SDS011;40572;45.552;12.072;2022-08-19T10:45:21;3.13;;;1.50;;
32800;SDS011;40572;45.552;12.072;2022-08-19T10:47:49;2.83;;;1.23;;
32800;SDS011;40572;45.552;12.072;2022-08-19T10:50:16;3.20;;;1.30;;
32800;SDS011;40572;45.552;12.072;2022-08-19T10:53:03;1.60;;;1.07;;
32800;SDS011;40572;45.552;12.072;2022-08-19T10:55:28;3.30;;;1.40;;
32800;SDS011;40572;45.552;12.072;2022-08-19T10:58:13;1.80;;;1.23;;
32800;SDS011;40572;45.552;12.072;2022-08-19T11:00:40;2.73;;;1.33;;
32800;SDS011;40572;45.552;12.072;2022-08-19T11:03:06;2.57;;;1.20;;
32800;SDS011;40572;45.552;12.072;2022-08-19T11:05:32;1.20;;;1.05;;
32800;SDS011;40572;45.552;12.072;2022-08-19T11:07:59;2.33;;;1.10;;
32800;SDS011;40572;45.552;12.072;2022-08-19T11:10:26;4.00;;;1.30;;
32800;SDS011;40572;45.552;12.072;2022-08-19T11:12:52;3.53;;;1.00;;
32800;SDS011;40572;45.552;12.072;2022-08-19T11:15:20;2.57;;;0.93;;
32800;SDS011;40572;45.552;12.072;2022-08-19T11:17:46;1.53;;;1.13;;
32800;SDS011;40572;45.552;12.072;2022-08-19T11:20:13;2.02;;;1.10;;
32800;SDS011;40572;45.552;12.072;2022-08-19T11:22:40;2.17;;;1.10;;
32800;SDS011;40572;45.552;12.072;2022-08-19T11:25:07;1.30;;;0.93;;
32800;SDS011;40572;45.552;12.072;2022-08-19T11:27:33;2.57;;;0.97;;
32800;SDS011;40572;45.552;12.072;2022-08-19T11:29:59;3.53;;;1.20;;
32800;SDS011;40572;45.552;12.072;2022-08-19T11:32:26;2.90;;;1.10;;
32800;SDS011;40572;45.552;12.072;2022-08-19T11:34:52;2.97;;;1.10;;
32800;SDS011;40572;45.552;12.072;2022-08-19T11:37:20;2.43;;;1.00;;
32800;SDS011;40572;45.552;12.072;2022-08-19T11:39:46;1.67;;;1.13;;
32800;SDS011;40572;45.552;12.072;2022-08-19T11:42:12;1.75;;;0.85;;
32800;SDS011;40572;45.552;12.072;2022-08-19T11:44:56;1.43;;;0.90;;
32800;SDS011;40572;45.552;12.072;2022-08-19T11:47:23;1.07;;;0.90;;
32800;SDS011;40572;45.552;12.072;2022-08-19T11:49:49;2.70;;;0.87;;
32800;SDS011;40572;45.552;12.072;2022-08-19T11:52:15;1.90;;;1.00;;
32800;SDS011;40572;45.552;12.072;2022-08-19T11:54:42;1.55;;;1.30;;
32800;SDS011;40572;45.552;12.072;2022-08-19T11:57:08;3.75;;;1.30;;
32800;SDS011;40572;45.552;12.072;2022-08-19T11:59:34;1.10;;;1.00;;
32800;SDS011;40572;45.552;12.072;2022-08-19T12:02:00;1.92;;;1.00;;
32800;SDS011;40572;45.552;12.072;2022-08-19T12:04:26;2.17;;;0.90;;
32800;SDS011;40572;45.552;12.072;2022-08-19T12:06:53;3.37;;;1.00;;
32800;SDS011;40572;45.552;12.072;2022-08-19T12:09:19;1.63;;;0.90;;
32800;SDS011;40572;45.552;12.072;2022-08-19T12:11:45;1.77;;;1.00;;
32800;SDS011;40572;45.552;12.072;2022-08-19T12:14:12;3.02;;;1.35;;
32800;SDS011;40572;45.552;12.072;2022-08-19T12:16:39;2.57;;;1.10;;
32800;SDS011;40572;45.552;12.072;2022-08-19T12:19:06;1.60;;;1.20;;
32800;SDS011;40572;45.552;12.072;2022-08-19T12:21:34;3.33;;;1.40;;
32800;SDS011;40572;45.552;12.072;2022-08-19T12:24:01;2.27;;;1.40;;
32800;SDS011;40572;45.552;12.072;2022-08-19T12:26:28;2.57;;;1.13;;
32800;SDS011;40572;45.552;12.072;2022-08-19T12:28:55;1.73;;;1.30;;
32800;SDS011;40572;45.552;12.072;2022-08-19T12:31:21;2.80;;;1.37;;
32800;SDS011;40572;45.552;12.072;2022-08-19T12:33:47;2.95;;;1.47;;
32800;SDS011;40572;45.552;12.072;2022-08-19T12:36:14;2.00;;;1.20;;
32800;SDS011;40572;45.552;12.072;2022-08-19T12:38:41;1.67;;;1.10;;
32800;SDS011;40572;45.552;12.072;2022-08-19T12:41:09;3.57;;;1.40;;
32800;SDS011;40572;45.552;12.072;2022-08-19T12:43:36;4.73;;;1.47;;
32800;SDS011;40572;45.552;12.072;2022-08-19T12:46:07;2.67;;;1.30;;
32800;SDS011;40572;45.552;12.072;2022-08-19T12:48:34;1.93;;;1.40;;
32800;SDS011;40572;45.552;12.072;2022-08-19T12:51:01;4.72;;;1.67;;
32800;SDS011;40572;45.552;12.072;2022-08-19T12:53:28;3.03;;;1.10;;
32800;SDS011;40572;45.552;12.072;2022-08-19T12:55:55;2.17;;;1.40;;
32800;SDS011;40572;45.552;12.072;2022-08-19T12:58:22;3.43;;;1.80;;
32800;SDS011;40572;45.552;12.072;2022-08-19T13:00:49;3.17;;;1.50;;
32800;SDS011;40572;45.552;12.072;2022-08-19T13:03:15;3.65;;;1.92;;
32800;SDS011;40572;45.552;12.072;2022-08-19T13:05:41;2.67;;;1.62;;
32800;SDS011;40572;45.552;12.072;2022-08-19T13:08:08;6.13;;;1.83;;
32800;SDS011;40572;45.552;12.072;2022-08-19T13:10:35;2.73;;;1.70;;
32800;SDS011;40572;45.552;12.072;2022-08-19T13:13:03;1.53;;;1.20;;
32800;SDS011;40572;45.552;12.072;2022-08-19T13:15:32;3.47;;;1.80;;
32800;SDS011;40572;45.552;12.072;2022-08-19T13:18:00;2.45;;;1.37;;
32800;SDS011;40572;45.552;12.072;2022-08-19T13:20:26;2.27;;;1.40;;
32800;SDS011;40572;45.552;12.072;2022-08-19T13:22:53;1.45;;;1.20;;
32800;SDS011;40572;45.552;12.072;2022-08-19T13:25:19;2.50;;;1.37;;
32800;SDS011;40572;45.552;12.072;2022-08-19T13:27:46;3.43;;;1.47;;
32800;SDS011;40572;45.552;12.072;2022-08-19T13:30:14;2.50;;;1.20;;
32800;SDS011;40572;45.552;12.072;2022-08-19T13:32:58;4.53;;;1.57;;
32800;SDS011;40572;45.552;12.072;2022-08-19T13:35:42;4.57;;;1.70;;
32800;SDS011;40572;45.552;12.072;2022-08-19T13:38:05;4.00;;;1.40;;
32800;SDS011;40572;45.552;12.072;2022-08-19T13:40:32;1.67;;;1.10;;
32800;SDS011;40572;45.552;12.072;2022-08-19T13:43:02;2.60;;;1.20;;
32800;SDS011;40572;45.552;12.072;2022-08-19T13:45:29;4.23;;;1.50;;
32800;SDS011;40572;45.552;12.072;2022-08-19T13:47:58;2.77;;;1.10;;
32800;SDS011;40572;45.552;12.072;2022-08-19T13:50:29;2.30;;;1.00;;
32800;SDS011;40572;45.552;12.072;2022-08-19T13:52:53;2.03;;;1.07;;
32800;SDS011;40572;45.552;12.072;2022-08-19T13:55:19;3.53;;;1.13;;
32800;SDS011;40572;45.552;12.072;2022-08-19T13:57:46;4.20;;;1.10;;
32800;SDS011;40572;45.552;12.072;2022-08-19T14:00:15;1.70;;;1.00;;
32800;SDS011;40572;45.552;12.072;2022-08-19T14:02:44;2.53;;;1.00;;
32800;SDS011;40572;45.552;12.072;2022-08-19T14:05:11;2.00;;;1.10;;
32800;SDS011;40572;45.552;12.072;2022-08-19T14:07:38;2.13;;;1.00;;
32800;SDS011;40572;45.552;12.072;2022-08-19T14:10:06;1.50;;;0.97;;
32800;SDS011;40572;45.552;12.072;2022-08-19T14:12:33;2.27;;;1.17;;
32800;SDS011;40572;45.552;12.072;2022-08-19T14:15:01;2.90;;;1.27;;
32800;SDS011;40572;45.552;12.072;2022-08-19T14:17:29;2.60;;;1.07;;
32800;SDS011;40572;45.552;12.072;2022-08-19T14:19:59;1.73;;;0.97;;
32800;SDS011;40572;45.552;12.072;2022-08-19T14:22:28;1.63;;;1.10;;
32800;SDS011;40572;45.552;12.072;2022-08-19T14:24:54;1.73;;;1.20;;
32800;SDS011;40572;45.552;12.072;2022-08-19T14:27:20;2.07;;;1.10;;
32800;SDS011;40572;45.552;12.072;2022-08-19T14:29:47;2.50;;;1.20;;
32800;SDS011;40572;45.552;12.072;2022-08-19T14:32:13;3.00;;;1.57;;
32800;SDS011;40572;45.552;12.072;2022-08-19T14:34:40;2.03;;;1.10;;
32800;SDS011;40572;45.552;12.072;2022-08-19T14:37:06;3.83;;;1.22;;
32800;SDS011;40572;45.552;12.072;2022-08-19T14:39:33;2.93;;;1.30;;
32800;SDS011;40572;45.552;12.072;2022-08-19T14:42:00;3.40;;;1.40;;
32800;SDS011;40572;45.552;12.072;2022-08-19T14:44:27;2.13;;;1.10;;
32800;SDS011;40572;45.552;12.072;2022-08-19T14:46:53;4.05;;;1.12;;
32800;SDS011;40572;45.552;12.072;2022-08-19T14:49:19;2.35;;;1.27;;
32800;SDS011;40572;45.552;12.072;2022-08-19T14:51:45;2.75;;;1.10;;
32800;SDS011;40572;45.552;12.072;2022-08-19T14:54:12;1.85;;;0.95;;
32800;SDS011;40572;45.552;12.072;2022-08-19T14:56:39;2.57;;;1.10;;
32800;SDS011;40572;45.552;12.072;2022-08-19T14:59:06;3.23;;;1.40;;
32800;SDS011;40572;45.552;12.072;2022-08-19T15:01:32;2.05;;;1.05;;
32800;SDS011;40572;45.552;12.072;2022-08-19T15:03:58;2.37;;;1.00;;
32800;SDS011;40572;45.552;12.072;2022-08-19T15:06:24;1.55;;;1.10;;
32800;SDS011;40572;45.552;12.072;2022-08-19T15:08:51;2.80;;;1.00;;
32800;SDS011;40572;45.552;12.072;2022-08-19T15:11:19;2.63;;;1.10;;
32800;SDS011;40572;45.552;12.072;2022-08-19T15:13:47;3.83;;;1.10;;
32800;SDS011;40572;45.552;12.072;2022-08-19T15:16:13;2.60;;;1.00;;
32800;SDS011;40572;45.552;12.072;2022-08-19T15:18:43;3.27;;;0.90;;
32800;SDS011;40572;45.552;12.072;2022-08-19T15:21:13;4.60;;;1.23;;
32800;SDS011;40572;45.552;12.072;2022-08-19T15:23:40;2.10;;;0.97;;
32800;SDS011;40572;45.552;12.072;2022-08-19T15:26:06;2.47;;;0.88;;
32800;SDS011;40572;45.552;12.072;2022-08-19T15:28:34;2.90;;;1.00;;